sensor_id;sensor_type;location;lat;lon;timestamp;P1;durP1;ratioP1;P2;durP2;ratioP2
77326;SDS011;66399;52.322;20.980;2023-03-19T00:04:03;15.20;;;5.50;;
77326;SDS011;66399;52.322;20.980;2023-03-19T00:08:09;15.20;;;6.00;;
77326;SDS011;66399;52.322;20.980;2023-03-19T00:12:14;12.00;;;5.40;;
77326;SDS011;66399;52.322;20.980;2023-03-19T00:16:19;12.50;;;5.00;;
77326;SDS011;66399;52.322;20.980;2023-03-19T00:20:24;15.00;;;6.00;;
77326;SDS011;66399;52.322;20.980;2023-03-19T00:24:30;13.60;;;5.80;;
77326;SDS011;66399;52.322;20.980;2023-03-19T00:28:35;14.70;;;6.70;;
77326;SDS011;66399;52.322;20.980;2023-03-19T00:32:41;10.00;;;4.70;;
77326;SDS011;66399;52.322;20.980;2023-03-19T00:36:46;12.90;;;5.70;;
77326;SDS011;66399;52.322;20.980;2023-03-19T00:40:51;15.80;;;6.10;;
77326;SDS011;66399;52.322;20.980;2023-03-19T00:44:57;16.30;;;6.00;;
77326;SDS011;66399;52.322;20.980;2023-03-19T00:49:02;15.20;;;6.00;;
77326;SDS011;66399;52.322;20.980;2023-03-19T00:53:08;12.60;;;6.20;;
77326;SDS011;66399;52.322;20.980;2023-03-19T00:57:13;13.10;;;4.70;;
77326;SDS011;66399;52.322;20.980;2023-03-19T01:01:18;12.50;;;6.00;;
77326;SDS011;66399;52.322;20.980;2023-03-19T01:05:23;12.10;;;5.20;;
77326;SDS011;66399;52.322;20.980;2023-03-19T01:09:29;16.00;;;6.30;;
77326;SDS011;66399;52.322;20.980;2023-03-19T01:13:34;14.70;;;6.40;;
77326;SDS011;66399;52.322;20.980;2023-03-19T01:17:40;13.20;;;5.10;;
77326;SDS011;66399;52.322;20.980;2023-03-19T01:21:46;15.60;;;5.30;;
77326;SDS011;66399;52.322;20.980;2023-03-19T01:25:52;12.00;;;5.50;;
77326;SDS011;66399;52.322;20.980;2023-03-19T01:29:57;16.60;;;6.40;;
77326;SDS011;66399;52.322;20.980;2023-03-19T01:34:02;17.10;;;6.50;;
77326;SDS011;66399;52.322;20.980;2023-03-19T01:42:12;12.70;;;6.00;;
77326;SDS011;66399;52.322;20.980;2023-03-19T01:46:19;14.30;;;5.20;;
77326;SDS011;66399;52.322;20.980;2023-03-19T01:50:37;14.70;;;6.30;;
77326;SDS011;66399;52.322;20.980;2023-03-19T01:54:44;16.00;;;5.80;;
77326;SDS011;66399;52.322;20.980;2023-03-19T01:58:51;15.90;;;6.00;;
77326;SDS011;66399;52.322;20.980;2023-03-19T02:02:57;15.50;;;6.30;;
77326;SDS011;66399;52.322;20.980;2023-03-19T02:07:04;15.90;;;5.80;;
77326;SDS011;66399;52.322;20.980;2023-03-19T02:11:10;13.80;;;5.70;;
77326;SDS011;66399;52.322;20.980;2023-03-19T02:15:16;16.00;;;6.10;;
77326;SDS011;66399;52.322;20.980;2023-03-19T02:19:21;16.30;;;6.70;;
77326;SDS011;66399;52.322;20.980;2023-03-19T02:23:31;17.90;;;6.40;;
77326;SDS011;66399;52.322;20.980;2023-03-19T02:27:38;13.80;;;6.30;;
77326;SDS011;66399;52.322;20.980;2023-03-19T02:31:44;14.20;;;6.00;;
77326;SDS011;66399;52.322;20.980;2023-03-19T02:35:50;12.30;;;5.20;;
77326;SDS011;66399;52.322;20.980;2023-03-19T02:39:56;14.20;;;5.80;;
77326;SDS011;66399;52.322;20.980;2023-03-19T02:44:03;15.60;;;6.00;;
77326;SDS011;66399;52.322;20.980;2023-03-19T02:48:08;13.10;;;5.90;;
77326;SDS011;66399;52.322;20.980;2023-03-19T02:52:14;14.40;;;5.70;;
77326;SDS011;66399;52.322;20.980;2023-03-19T02:56:20;14.00;;;5.90;;
77326;SDS011;66399;52.322;20.980;2023-03-19T03:00:26;15.20;;;6.50;;
77326;SDS011;66399;52.322;20.980;2023-03-19T03:04:31;13.60;;;5.20;;
77326;SDS011;66399;52.322;20.980;2023-03-19T03:08:37;16.20;;;6.20;;
77326;SDS011;66399;52.322;20.980;2023-03-19T03:12:42;14.20;;;6.60;;
77326;SDS011;66399;52.322;20.980;2023-03-19T03:16:47;14.50;;;5.10;;
77326;SDS011;66399;52.322;20.980;2023-03-19T03:20:53;16.30;;;7.00;;
77326;SDS011;66399;52.322;20.980;2023-03-19T03:24:58;16.70;;;6.20;;
77326;SDS011;66399;52.322;20.980;2023-03-19T03:29:04;18.10;;;6.60;;
77326;SDS011;66399;52.322;20.980;2023-03-19T03:33:09;17.50;;;6.30;;
77326;SDS011;66399;52.322;20.980;2023-03-19T03:37:15;13.30;;;5.60;;
77326;SDS011;66399;52.322;20.980;2023-03-19T03:41:20;16.60;;;6.40;;
77326;SDS011;66399;52.322;20.980;2023-03-19T03:45:25;18.90;;;7.10;;
77326;SDS011;66399;52.322;20.980;2023-03-19T03:49:30;13.60;;;5.80;;
77326;SDS011;66399;52.322;20.980;2023-03-19T03:53:36;14.90;;;6.20;;
77326;SDS011;66399;52.322;20.980;2023-03-19T03:57:41;13.70;;;6.20;;
77326;SDS011;66399;52.322;20.980;2023-03-19T04:01:46;14.80;;;5.80;;
77326;SDS011;66399;52.322;20.980;2023-03-19T04:05:51;13.70;;;5.50;;
77326;SDS011;66399;52.322;20.980;2023-03-19T04:09:57;16.00;;;6.10;;
77326;SDS011;66399;52.322;20.980;2023-03-19T04:14:02;15.60;;;6.10;;
77326;SDS011;66399;52.322;20.980;2023-03-19T04:18:08;14.90;;;6.20;;
77326;SDS011;66399;52.322;20.980;2023-03-19T04:26:18;15.50;;;6.30;;
77326;SDS011;66399;52.322;20.980;2023-03-19T04:30:24;15.20;;;6.00;;
77326;SDS011;66399;52.322;20.980;2023-03-19T04:34:29;15.00;;;7.00;;
77326;SDS011;66399;52.322;20.980;2023-03-19T04:38:34;17.20;;;6.90;;
77326;SDS011;66399;52.322;20.980;2023-03-19T04:42:40;15.20;;;6.50;;
77326;SDS011;66399;52.322;20.980;2023-03-19T04:46:47;14.90;;;6.00;;
77326;SDS011;66399;52.322;20.980;2023-03-19T04:50:52;12.50;;;5.90;;
77326;SDS011;66399;52.322;20.980;2023-03-19T04:54:59;16.50;;;6.00;;
77326;SDS011;66399;52.322;20.980;2023-03-19T04:59:05;14.10;;;6.10;;
77326;SDS011;66399;52.322;20.980;2023-03-19T05:03:11;18.80;;;6.10;;
77326;SDS011;66399;52.322;20.980;2023-03-19T05:07:16;15.30;;;5.90;;
77326;SDS011;66399;52.322;20.980;2023-03-19T05:11:21;17.00;;;6.70;;
77326;SDS011;66399;52.322;20.980;2023-03-19T05:15:27;17.60;;;7.40;;
77326;SDS011;66399;52.322;20.980;2023-03-19T05:19:32;16.10;;;7.10;;
77326;SDS011;66399;52.322;20.980;2023-03-19T05:23:38;17.20;;;6.10;;
77326;SDS011;66399;52.322;20.980;2023-03-19T05:27:43;17.60;;;6.90;;
77326;SDS011;66399;52.322;20.980;2023-03-19T05:31:48;17.60;;;6.50;;
77326;SDS011;66399;52.322;20.980;2023-03-19T05:35:54;13.00;;;6.50;;
77326;SDS011;66399;52.322;20.980;2023-03-19T05:40:01;17.20;;;6.70;;
77326;SDS011;66399;52.322;20.980;2023-03-19T05:44:06;17.00;;;6.20;;
77326;SDS011;66399;52.322;20.980;2023-03-19T05:48:11;15.70;;;6.50;;
77326;SDS011;66399;52.322;20.980;2023-03-19T05:52:17;18.10;;;6.70;;
77326;SDS011;66399;52.322;20.980;2023-03-19T05:56:22;15.30;;;6.10;;
77326;SDS011;66399;52.322;20.980;2023-03-19T06:00:27;15.40;;;5.90;;
77326;SDS011;66399;52.322;20.980;2023-03-19T06:04:33;15.90;;;5.90;;
77326;SDS011;66399;52.322;20.980;2023-03-19T06:08:38;15.50;;;6.80;;
77326;SDS011;66399;52.322;20.980;2023-03-19T06:12:43;17.80;;;5.90;;
77326;SDS011;66399;52.322;20.980;2023-03-19T06:16:49;15.00;;;6.50;;
77326;SDS011;66399;52.322;20.980;2023-03-19T06:20:54;12.90;;;5.30;;
77326;SDS011;66399;52.322;20.980;2023-03-19T06:25:00;12.40;;;6.10;;
77326;SDS011;66399;52.322;20.980;2023-03-19T06:29:05;14.00;;;6.30;;
77326;SDS011;66399;52.322;20.980;2023-03-19T06:33:10;15.10;;;6.10;;
77326;SDS011;66399;52.322;20.980;2023-03-19T06:37:17;14.80;;;5.60;;
77326;SDS011;66399;52.322;20.980;2023-03-19T06:41:22;14.40;;;7.00;;
77326;SDS011;66399;52.322;20.980;2023-03-19T06:45:28;17.20;;;6.70;;
77326;SDS011;66399;52.322;20.980;2023-03-19T06:49:33;13.20;;;5.80;;
77326;SDS011;66399;52.322;20.980;2023-03-19T06:53:39;11.80;;;5.60;;
77326;SDS011;66399;52.322;20.980;2023-03-19T06:57:44;16.50;;;7.80;;
77326;SDS011;66399;52.322;20.980;2023-03-19T07:01:51;12.10;;;5.60;;
77326;SDS011;66399;52.322;20.980;2023-03-19T07:05:57;12.30;;;6.10;;
77326;SDS011;66399;52.322;20.980;2023-03-19T07:10:03;13.30;;;5.90;;
77326;SDS011;66399;52.322;20.980;2023-03-19T07:14:09;15.30;;;6.20;;
77326;SDS011;66399;52.322;20.980;2023-03-19T07:18:14;14.40;;;5.70;;
77326;SDS011;66399;52.322;20.980;2023-03-19T07:22:20;13.40;;;6.50;;
77326;SDS011;66399;52.322;20.980;2023-03-19T07:26:25;14.40;;;6.70;;
77326;SDS011;66399;52.322;20.980;2023-03-19T07:30:31;16.00;;;6.70;;
77326;SDS011;66399;52.322;20.980;2023-03-19T07:34:37;11.90;;;6.20;;
77326;SDS011;66399;52.322;20.980;2023-03-19T07:38:42;14.00;;;6.10;;
77326;SDS011;66399;52.322;20.980;2023-03-19T07:42:47;16.10;;;6.50;;
77326;SDS011;66399;52.322;20.980;2023-03-19T07:46:53;12.00;;;6.40;;
77326;SDS011;66399;52.322;20.980;2023-03-19T07:50:58;12.80;;;6.00;;
77326;SDS011;66399;52.322;20.980;2023-03-19T07:55:04;12.20;;;5.90;;
77326;SDS011;66399;52.322;20.980;2023-03-19T07:59:09;13.40;;;5.90;;
77326;SDS011;66399;52.322;20.980;2023-03-19T08:03:15;12.60;;;5.90;;
77326;SDS011;66399;52.322;20.980;2023-03-19T08:11:24;13.50;;;6.50;;
77326;SDS011;66399;52.322;20.980;2023-03-19T08:15:30;15.10;;;7.40;;
77326;SDS011;66399;52.322;20.980;2023-03-19T08:19:35;12.60;;;5.60;;
77326;SDS011;66399;52.322;20.980;2023-03-19T08:23:40;14.30;;;7.40;;
77326;SDS011;66399;52.322;20.980;2023-03-19T08:27:45;13.80;;;6.40;;
77326;SDS011;66399;52.322;20.980;2023-03-19T08:31:51;15.50;;;6.80;;
77326;SDS011;66399;52.322;20.980;2023-03-19T08:36:03;14.50;;;7.00;;
77326;SDS011;66399;52.322;20.980;2023-03-19T08:40:10;13.70;;;7.20;;
77326;SDS011;66399;52.322;20.980;2023-03-19T08:44:15;13.60;;;6.70;;
77326;SDS011;66399;52.322;20.980;2023-03-19T08:48:20;15.80;;;7.50;;
77326;SDS011;66399;52.322;20.980;2023-03-19T08:56:29;14.50;;;6.80;;
77326;SDS011;66399;52.322;20.980;2023-03-19T09:04:41;15.90;;;6.90;;
77326;SDS011;66399;52.322;20.980;2023-03-19T09:08:46;16.90;;;8.30;;
77326;SDS011;66399;52.322;20.980;2023-03-19T09:16:55;14.60;;;7.10;;
77326;SDS011;66399;52.322;20.980;2023-03-19T09:21:00;15.80;;;7.50;;
77326;SDS011;66399;52.322;20.980;2023-03-19T09:25:06;16.60;;;7.10;;
77326;SDS011;66399;52.322;20.980;2023-03-19T09:29:12;18.10;;;7.60;;
77326;SDS011;66399;52.322;20.980;2023-03-19T09:33:18;16.90;;;7.30;;
77326;SDS011;66399;52.322;20.980;2023-03-19T09:37:24;16.20;;;7.90;;
77326;SDS011;66399;52.322;20.980;2023-03-19T09:41:31;17.90;;;8.70;;
77326;SDS011;66399;52.322;20.980;2023-03-19T09:45:39;14.60;;;7.40;;
77326;SDS011;66399;52.322;20.980;2023-03-19T09:49:45;13.70;;;7.40;;
77326;SDS011;66399;52.322;20.980;2023-03-19T09:53:52;14.20;;;6.50;;
77326;SDS011;66399;52.322;20.980;2023-03-19T09:57:59;14.20;;;7.80;;
77326;SDS011;66399;52.322;20.980;2023-03-19T10:02:21;16.10;;;6.90;;
77326;SDS011;66399;52.322;20.980;2023-03-19T10:06:29;14.90;;;7.50;;
77326;SDS011;66399;52.322;20.980;2023-03-19T10:10:44;15.00;;;7.80;;
77326;SDS011;66399;52.322;20.980;2023-03-19T10:15:05;12.80;;;6.70;;
77326;SDS011;66399;52.322;20.980;2023-03-19T10:19:14;14.70;;;6.70;;
77326;SDS011;66399;52.322;20.980;2023-03-19T10:23:29;16.50;;;6.90;;
77326;SDS011;66399;52.322;20.980;2023-03-19T10:27:37;11.50;;;6.70;;
77326;SDS011;66399;52.322;20.980;2023-03-19T10:31:45;12.70;;;6.70;;
77326;SDS011;66399;52.322;20.980;2023-03-19T10:35:53;13.40;;;6.70;;
77326;SDS011;66399;52.322;20.980;2023-03-19T10:40:01;14.20;;;6.70;;
77326;SDS011;66399;52.322;20.980;2023-03-19T10:44:09;13.00;;;5.70;;
77326;SDS011;66399;52.322;20.980;2023-03-19T10:48:16;12.50;;;5.80;;
77326;SDS011;66399;52.322;20.980;2023-03-19T10:52:23;11.30;;;5.80;;
77326;SDS011;66399;52.322;20.980;2023-03-19T10:56:28;11.50;;;6.20;;
77326;SDS011;66399;52.322;20.980;2023-03-19T11:00:37;11.40;;;5.80;;
77326;SDS011;66399;52.322;20.980;2023-03-19T11:04:42;11.70;;;6.50;;
77326;SDS011;66399;52.322;20.980;2023-03-19T11:08:51;12.50;;;6.40;;
77326;SDS011;66399;52.322;20.980;2023-03-19T11:12:58;10.30;;;6.10;;
77326;SDS011;66399;52.322;20.980;2023-03-19T11:17:04;10.60;;;6.10;;
77326;SDS011;66399;52.322;20.980;2023-03-19T11:21:21;11.20;;;5.80;;
77326;SDS011;66399;52.322;20.980;2023-03-19T11:25:27;10.90;;;6.00;;
77326;SDS011;66399;52.322;20.980;2023-03-19T11:29:33;14.70;;;6.80;;
77326;SDS011;66399;52.322;20.980;2023-03-19T11:33:43;10.10;;;6.00;;
77326;SDS011;66399;52.322;20.980;2023-03-19T11:42:01;13.60;;;6.80;;
77326;SDS011;66399;52.322;20.980;2023-03-19T11:46:09;9.50;;;6.00;;
77326;SDS011;66399;52.322;20.980;2023-03-19T11:50:20;15.90;;;7.70;;
77326;SDS011;66399;52.322;20.980;2023-03-19T11:54:29;11.30;;;6.40;;
77326;SDS011;66399;52.322;20.980;2023-03-19T11:58:46;11.80;;;6.50;;
77326;SDS011;66399;52.322;20.980;2023-03-19T12:07:20;10.40;;;5.70;;
77326;SDS011;66399;52.322;20.980;2023-03-19T12:11:28;10.70;;;6.30;;
77326;SDS011;66399;52.322;20.980;2023-03-19T12:15:40;12.70;;;6.60;;
77326;SDS011;66399;52.322;20.980;2023-03-19T12:24:18;12.30;;;6.50;;
77326;SDS011;66399;52.322;20.980;2023-03-19T12:28:27;12.10;;;6.50;;
77326;SDS011;66399;52.322;20.980;2023-03-19T12:32:37;12.40;;;6.40;;
77326;SDS011;66399;52.322;20.980;2023-03-19T12:36:47;11.70;;;6.20;;
77326;SDS011;66399;52.322;20.980;2023-03-19T12:40:55;12.10;;;6.50;;
77326;SDS011;66399;52.322;20.980;2023-03-19T12:45:02;10.10;;;5.70;;
77326;SDS011;66399;52.322;20.980;2023-03-19T12:49:12;11.00;;;6.00;;
77326;SDS011;66399;52.322;20.980;2023-03-19T12:53:21;11.60;;;6.30;;
77326;SDS011;66399;52.322;20.980;2023-03-19T12:57:32;11.40;;;6.40;;
77326;SDS011;66399;52.322;20.980;2023-03-19T13:01:40;8.70;;;5.30;;
77326;SDS011;66399;52.322;20.980;2023-03-19T13:05:51;8.40;;;4.90;;
77326;SDS011;66399;52.322;20.980;2023-03-19T13:09:59;11.10;;;6.00;;
77326;SDS011;66399;52.322;20.980;2023-03-19T13:14:07;11.10;;;6.20;;
77326;SDS011;66399;52.322;20.980;2023-03-19T13:18:18;10.70;;;5.80;;
77326;SDS011;66399;52.322;20.980;2023-03-19T13:22:27;10.40;;;6.00;;
77326;SDS011;66399;52.322;20.980;2023-03-19T13:26:34;9.30;;;5.70;;
77326;SDS011;66399;52.322;20.980;2023-03-19T13:30:41;9.10;;;5.10;;
77326;SDS011;66399;52.322;20.980;2023-03-19T13:35:09;9.00;;;5.20;;
77326;SDS011;66399;52.322;20.980;2023-03-19T13:39:17;8.80;;;5.20;;
77326;SDS011;66399;52.322;20.980;2023-03-19T13:47:51;12.50;;;5.70;;
77326;SDS011;66399;52.322;20.980;2023-03-19T13:52:01;10.70;;;6.10;;
77326;SDS011;66399;52.322;20.980;2023-03-19T13:56:09;8.90;;;5.50;;
77326;SDS011;66399;52.322;20.980;2023-03-19T14:04:56;10.00;;;5.90;;
77326;SDS011;66399;52.322;20.980;2023-03-19T14:09:02;9.00;;;5.80;;
77326;SDS011;66399;52.322;20.980;2023-03-19T14:13:08;11.10;;;5.20;;
77326;SDS011;66399;52.322;20.980;2023-03-19T14:17:23;8.90;;;5.20;;
77326;SDS011;66399;52.322;20.980;2023-03-19T14:21:32;10.20;;;6.40;;
77326;SDS011;66399;52.322;20.980;2023-03-19T14:25:58;7.50;;;4.80;;
77326;SDS011;66399;52.322;20.980;2023-03-19T14:30:08;9.60;;;5.40;;
77326;SDS011;66399;52.322;20.980;2023-03-19T14:34:19;9.80;;;5.70;;
77326;SDS011;66399;52.322;20.980;2023-03-19T14:38:27;9.20;;;5.40;;
77326;SDS011;66399;52.322;20.980;2023-03-19T14:42:36;10.00;;;6.20;;
77326;SDS011;66399;52.322;20.980;2023-03-19T14:46:47;8.80;;;5.20;;
77326;SDS011;66399;52.322;20.980;2023-03-19T14:55:33;10.30;;;5.70;;
77326;SDS011;66399;52.322;20.980;2023-03-19T14:59:40;9.70;;;5.40;;
77326;SDS011;66399;52.322;20.980;2023-03-19T15:03:50;14.00;;;5.40;;
77326;SDS011;66399;52.322;20.980;2023-03-19T15:07:56;8.90;;;5.20;;
77326;SDS011;66399;52.322;20.980;2023-03-19T15:12:12;9.50;;;5.30;;
77326;SDS011;66399;52.322;20.980;2023-03-19T15:16:29;13.90;;;6.10;;
77326;SDS011;66399;52.322;20.980;2023-03-19T15:20:36;10.60;;;5.20;;
77326;SDS011;66399;52.322;20.980;2023-03-19T15:24:42;12.10;;;5.60;;
77326;SDS011;66399;52.322;20.980;2023-03-19T15:28:48;9.40;;;5.10;;
77326;SDS011;66399;52.322;20.980;2023-03-19T15:32:56;10.70;;;5.70;;
77326;SDS011;66399;52.322;20.980;2023-03-19T15:37:17;9.60;;;6.10;;
77326;SDS011;66399;52.322;20.980;2023-03-19T15:41:24;12.00;;;5.20;;
77326;SDS011;66399;52.322;20.980;2023-03-19T15:45:30;9.30;;;5.00;;
77326;SDS011;66399;52.322;20.980;2023-03-19T15:49:37;14.40;;;7.60;;
77326;SDS011;66399;52.322;20.980;2023-03-19T15:53:43;10.80;;;6.10;;
77326;SDS011;66399;52.322;20.980;2023-03-19T15:57:49;8.90;;;5.40;;
77326;SDS011;66399;52.322;20.980;2023-03-19T16:01:56;8.90;;;5.10;;
77326;SDS011;66399;52.322;20.980;2023-03-19T16:06:03;10.70;;;5.30;;
77326;SDS011;66399;52.322;20.980;2023-03-19T16:10:31;11.10;;;5.50;;
77326;SDS011;66399;52.322;20.980;2023-03-19T16:14:38;11.60;;;5.50;;
77326;SDS011;66399;52.322;20.980;2023-03-19T16:18:47;10.50;;;4.70;;
77326;SDS011;66399;52.322;20.980;2023-03-19T16:22:56;10.30;;;5.10;;
77326;SDS011;66399;52.322;20.980;2023-03-19T16:27:02;12.30;;;5.70;;
77326;SDS011;66399;52.322;20.980;2023-03-19T16:31:18;9.60;;;4.90;;
77326;SDS011;66399;52.322;20.980;2023-03-19T16:35:25;11.10;;;5.50;;
77326;SDS011;66399;52.322;20.980;2023-03-19T16:39:32;12.00;;;5.80;;
77326;SDS011;66399;52.322;20.980;2023-03-19T16:43:37;15.40;;;6.50;;
77326;SDS011;66399;52.322;20.980;2023-03-19T16:47:48;14.60;;;7.20;;
77326;SDS011;66399;52.322;20.980;2023-03-19T16:51:54;14.10;;;7.00;;
77326;SDS011;66399;52.322;20.980;2023-03-19T16:55:59;20.40;;;9.60;;
77326;SDS011;66399;52.322;20.980;2023-03-19T17:00:08;19.40;;;9.10;;
77326;SDS011;66399;52.322;20.980;2023-03-19T17:04:14;17.10;;;8.60;;
77326;SDS011;66399;52.322;20.980;2023-03-19T17:08:20;19.20;;;9.60;;
77326;SDS011;66399;52.322;20.980;2023-03-19T17:12:26;29.80;;;16.20;;
77326;SDS011;66399;52.322;20.980;2023-03-19T17:16:32;29.90;;;16.80;;
77326;SDS011;66399;52.322;20.980;2023-03-19T17:20:43;49.60;;;23.80;;
77326;SDS011;66399;52.322;20.980;2023-03-19T17:24:51;84.70;;;40.30;;
77326;SDS011;66399;52.322;20.980;2023-03-19T17:28:57;123.00;;;59.20;;
77326;SDS011;66399;52.322;20.980;2023-03-19T17:33:02;105.80;;;49.60;;
77326;SDS011;66399;52.322;20.980;2023-03-19T17:37:11;103.10;;;49.70;;
77326;SDS011;66399;52.322;20.980;2023-03-19T17:41:17;99.80;;;44.50;;
77326;SDS011;66399;52.322;20.980;2023-03-19T17:45:24;79.30;;;37.90;;
77326;SDS011;66399;52.322;20.980;2023-03-19T17:49:30;74.70;;;36.70;;
77326;SDS011;66399;52.322;20.980;2023-03-19T17:53:36;67.80;;;33.60;;
77326;SDS011;66399;52.322;20.980;2023-03-19T17:57:43;65.80;;;33.20;;
77326;SDS011;66399;52.322;20.980;2023-03-19T18:05:52;55.60;;;25.80;;
77326;SDS011;66399;52.322;20.980;2023-03-19T18:14:00;93.90;;;40.90;;
77326;SDS011;66399;52.322;20.980;2023-03-19T18:18:08;92.20;;;41.60;;
77326;SDS011;66399;52.322;20.980;2023-03-19T18:22:15;85.20;;;36.90;;
77326;SDS011;66399;52.322;20.980;2023-03-19T18:26:21;72.20;;;32.70;;
77326;SDS011;66399;52.322;20.980;2023-03-19T18:30:28;104.50;;;47.10;;
77326;SDS011;66399;52.322;20.980;2023-03-19T18:34:34;100.60;;;44.30;;
77326;SDS011;66399;52.322;20.980;2023-03-19T18:38:39;107.10;;;49.90;;
77326;SDS011;66399;52.322;20.980;2023-03-19T18:42:44;85.40;;;38.00;;
77326;SDS011;66399;52.322;20.980;2023-03-19T18:46:50;102.00;;;45.20;;
77326;SDS011;66399;52.322;20.980;2023-03-19T18:50:55;67.80;;;33.00;;
77326;SDS011;66399;52.322;20.980;2023-03-19T18:55:01;71.40;;;31.90;;
77326;SDS011;66399;52.322;20.980;2023-03-19T18:59:07;62.00;;;28.90;;
77326;SDS011;66399;52.322;20.980;2023-03-19T19:03:14;59.90;;;26.50;;
77326;SDS011;66399;52.322;20.980;2023-03-19T19:07:20;26.00;;;11.80;;
77326;SDS011;66399;52.322;20.980;2023-03-19T19:11:25;34.10;;;16.00;;
77326;SDS011;66399;52.322;20.980;2023-03-19T19:15:31;49.90;;;21.70;;
77326;SDS011;66399;52.322;20.980;2023-03-19T19:19:37;54.80;;;20.60;;
77326;SDS011;66399;52.322;20.980;2023-03-19T19:23:45;34.10;;;13.80;;
77326;SDS011;66399;52.322;20.980;2023-03-19T19:27:52;42.40;;;18.20;;
77326;SDS011;66399;52.322;20.980;2023-03-19T19:31:58;40.50;;;16.90;;
77326;SDS011;66399;52.322;20.980;2023-03-19T19:36:08;26.00;;;11.10;;
77326;SDS011;66399;52.322;20.980;2023-03-19T19:40:15;24.80;;;12.30;;
77326;SDS011;66399;52.322;20.980;2023-03-19T19:44:20;26.80;;;12.90;;
77326;SDS011;66399;52.322;20.980;2023-03-19T19:48:26;29.30;;;12.70;;
77326;SDS011;66399;52.322;20.980;2023-03-19T19:52:32;25.60;;;12.90;;
77326;SDS011;66399;52.322;20.980;2023-03-19T19:56:37;28.80;;;13.10;;
77326;SDS011;66399;52.322;20.980;2023-03-19T20:00:43;25.60;;;13.20;;
77326;SDS011;66399;52.322;20.980;2023-03-19T20:05:05;26.60;;;12.00;;
77326;SDS011;66399;52.322;20.980;2023-03-19T20:09:13;25.10;;;12.80;;
77326;SDS011;66399;52.322;20.980;2023-03-19T20:17:22;42.80;;;17.60;;
77326;SDS011;66399;52.322;20.980;2023-03-19T20:21:27;33.80;;;15.00;;
77326;SDS011;66399;52.322;20.980;2023-03-19T20:25:33;33.60;;;15.70;;
77326;SDS011;66399;52.322;20.980;2023-03-19T20:29:40;69.60;;;29.30;;
77326;SDS011;66399;52.322;20.980;2023-03-19T20:33:46;56.10;;;22.40;;
77326;SDS011;66399;52.322;20.980;2023-03-19T20:37:51;69.60;;;27.90;;
77326;SDS011;66399;52.322;20.980;2023-03-19T20:41:57;50.90;;;22.30;;
77326;SDS011;66399;52.322;20.980;2023-03-19T20:46:03;49.40;;;22.10;;
77326;SDS011;66399;52.322;20.980;2023-03-19T20:50:13;48.90;;;21.00;;
77326;SDS011;66399;52.322;20.980;2023-03-19T20:54:19;47.40;;;21.10;;
77326;SDS011;66399;52.322;20.980;2023-03-19T20:58:25;42.80;;;20.10;;
77326;SDS011;66399;52.322;20.980;2023-03-19T21:02:32;46.40;;;20.00;;
77326;SDS011;66399;52.322;20.980;2023-03-19T21:06:37;45.80;;;19.00;;
77326;SDS011;66399;52.322;20.980;2023-03-19T21:10:56;45.30;;;18.60;;
77326;SDS011;66399;52.322;20.980;2023-03-19T21:15:01;45.80;;;18.90;;
77326;SDS011;66399;52.322;20.980;2023-03-19T21:19:06;48.40;;;22.00;;
77326;SDS011;66399;52.322;20.980;2023-03-19T21:23:14;49.80;;;19.90;;
77326;SDS011;66399;52.322;20.980;2023-03-19T21:27:20;45.60;;;19.00;;
77326;SDS011;66399;52.322;20.980;2023-03-19T21:31:26;42.50;;;18.90;;
77326;SDS011;66399;52.322;20.980;2023-03-19T21:35:32;51.90;;;21.00;;
77326;SDS011;66399;52.322;20.980;2023-03-19T21:39:38;49.90;;;19.90;;
77326;SDS011;66399;52.322;20.980;2023-03-19T21:43:43;53.80;;;21.00;;
77326;SDS011;66399;52.322;20.980;2023-03-19T21:47:50;53.40;;;21.70;;
77326;SDS011;66399;52.322;20.980;2023-03-19T21:51:55;55.60;;;22.60;;
77326;SDS011;66399;52.322;20.980;2023-03-19T21:56:01;60.40;;;23.00;;
77326;SDS011;66399;52.322;20.980;2023-03-19T22:00:08;58.50;;;24.30;;
77326;SDS011;66399;52.322;20.980;2023-03-19T22:04:14;59.10;;;24.00;;
77326;SDS011;66399;52.322;20.980;2023-03-19T22:08:20;54.90;;;22.60;;
77326;SDS011;66399;52.322;20.980;2023-03-19T22:12:26;57.70;;;23.50;;
77326;SDS011;66399;52.322;20.980;2023-03-19T22:20:36;63.90;;;23.50;;
77326;SDS011;66399;52.322;20.980;2023-03-19T22:24:41;56.00;;;22.80;;
77326;SDS011;66399;52.322;20.980;2023-03-19T22:28:46;61.80;;;23.60;;
77326;SDS011;66399;52.322;20.980;2023-03-19T22:32:52;57.00;;;23.90;;
77326;SDS011;66399;52.322;20.980;2023-03-19T22:36:59;63.50;;;24.70;;
77326;SDS011;66399;52.322;20.980;2023-03-19T22:41:04;58.60;;;24.90;;
77326;SDS011;66399;52.322;20.980;2023-03-19T22:45:19;61.30;;;25.30;;
77326;SDS011;66399;52.322;20.980;2023-03-19T22:49:28;58.60;;;23.10;;
77326;SDS011;66399;52.322;20.980;2023-03-19T22:57:38;55.10;;;21.50;;
77326;SDS011;66399;52.322;20.980;2023-03-19T23:01:43;53.80;;;21.50;;
77326;SDS011;66399;52.322;20.980;2023-03-19T23:05:51;57.10;;;22.70;;
77326;SDS011;66399;52.322;20.980;2023-03-19T23:09:56;52.60;;;20.10;;
77326;SDS011;66399;52.322;20.980;2023-03-19T23:14:03;51.70;;;22.40;;
77326;SDS011;66399;52.322;20.980;2023-03-19T23:18:20;53.00;;;22.00;;
77326;SDS011;66399;52.322;20.980;2023-03-19T23:22:26;48.80;;;20.10;;
77326;SDS011;66399;52.322;20.980;2023-03-19T23:26:31;51.80;;;21.20;;
77326;SDS011;66399;52.322;20.980;2023-03-19T23:34:44;57.70;;;22.50;;
77326;SDS011;66399;52.322;20.980;2023-03-19T23:39:04;61.70;;;23.40;;
77326;SDS011;66399;52.322;20.980;2023-03-19T23:43:14;62.60;;;24.10;;
77326;SDS011;66399;52.322;20.980;2023-03-19T23:47:20;56.00;;;22.40;;
77326;SDS011;66399;52.322;20.980;2023-03-19T23:51:25;56.10;;;22.00;;
77326;SDS011;66399;52.322;20.980;2023-03-19T23:55:31;53.30;;;23.30;;
77326;SDS011;66399;52.322;20.980;2023-03-19T23:59:37;51.40;;;21.80;;
